Sawyer County Airport Hayward US
ICAO: KHYR
IATA: HYR
Category: Medium
Scheduled Services: No

Elevation: 1216 ft
TransAlt. 18000 ft.

Airport Communications:
MINNEAPOLIS CNTR:126.45
ASOS:113.4
GREEN BAY RDO:113.4
CTAF/UNICOM:122.8

KHYR Zoom In..

If you have problems with the map follow the link
https://www.worldairports.se/pages/airport.php?
ICAO=KHYR

Runways:

(A) RW 02 length 5002 ft width 100 ft
LOC 108.50 / hdg 25

(B) RW 16 length 1090 ft width 110 ft
LOC 108.50 / hdg 163

(C) RW 20 length 5002 ft width 100 ft
LOC 108.50 / hdg 205

(D) RW 34 length 1090 ft width 110 ft
LOC 108.50 / hdg 343

Location; KHYR
Day. 26 / Time. 01.31 Zulu
* Altimeter: 29.88
* Temperature: -01° c. -30.2°f.
* Wind from: 000° Speed 00 kn.
Dewpoint: -03° c.
Visibility: 10 Statute Miles.
Clouds: Overcast 1400 ft.

KHYR 260131Z AUTO 00000KT 10SM OVC014 M01/M03 A2988 RMK AO2 T10111033 $


Wind - Calm.

 
 
jpsmedia worldairports.se 2020   terms of use